createdAt,value
2023-01-17T00:00:00.253Z,4.04
2023-01-17T00:02:02.470Z,4.10
2023-01-17T00:04:04.294Z,4.11
2023-01-17T00:06:06.211Z,4.18
2023-01-17T00:08:12.554Z,4.14
2023-01-17T00:10:19.660Z,4.19
2023-01-17T00:12:21.543Z,4.13
2023-01-17T00:14:23.688Z,3.98
2023-01-17T00:16:25.396Z,4.02
2023-01-17T00:18:27.055Z,3.98
2023-01-17T00:20:31.281Z,4.09
2023-01-17T00:22:33.597Z,4.11
2023-01-17T00:24:35.395Z,4.15
2023-01-17T00:26:37.204Z,4.03
2023-01-17T00:28:41.108Z,4.08
2023-01-17T00:30:42.932Z,3.96
2023-01-17T00:32:44.777Z,3.67
2023-01-17T00:34:46.452Z,3.94
2023-01-17T00:36:48.150Z,3.90
2023-01-17T00:38:50.214Z,3.93
2023-01-17T00:40:51.983Z,3.94
2023-01-17T00:42:53.656Z,3.93
2023-01-17T00:44:55.743Z,3.70
2023-01-17T00:46:57.424Z,3.83
2023-01-17T00:48:59.256Z,3.81
2023-01-17T00:51:03.637Z,3.67
2023-01-17T00:53:05.637Z,3.88
2023-01-17T00:55:07.424Z,3.91
2023-01-17T00:57:09.525Z,3.58
2023-01-17T00:59:11.209Z,3.52
2023-01-17T01:01:12.988Z,3.57
2023-01-17T01:03:14.893Z,3.25
2023-01-17T01:05:17.261Z,3.16
2023-01-17T01:07:18.927Z,3.20
2023-01-17T01:09:21.076Z,3.16
2023-01-17T01:11:22.749Z,3.27
2023-01-17T01:13:26.118Z,3.20
2023-01-17T01:15:27.944Z,2.99
2023-01-17T01:17:29.634Z,3.10
2023-01-17T01:19:31.563Z,3.04
2023-01-17T01:21:33.691Z,2.93
2023-01-17T01:23:35.827Z,3.03
2023-01-17T01:25:37.487Z,2.81
2023-01-17T01:27:39.441Z,2.80
2023-01-17T01:29:41.143Z,2.96
2023-01-17T01:31:42.858Z,2.95
2023-01-17T01:33:44.729Z,3.06
2023-01-17T01:35:55.959Z,2.90
2023-01-17T01:37:57.662Z,2.98
2023-01-17T01:39:59.643Z,2.90
2023-01-17T01:42:01.304Z,2.94
2023-01-17T01:44:03.011Z,2.64
2023-01-17T01:46:05.512Z,3.04
2023-01-17T01:48:26.788Z,2.85
2023-01-17T01:50:30.598Z,2.88
2023-01-17T01:52:35.120Z,2.71
2023-01-17T01:54:55.858Z,2.81
2023-01-17T01:57:01.534Z,2.84
2023-01-17T01:59:07.328Z,2.82
2023-01-17T02:01:09.628Z,2.84
2023-01-17T02:03:16.753Z,2.40
2023-01-17T02:05:22.967Z,2.70
2023-01-17T02:07:31.313Z,2.70
2023-01-17T02:09:33.064Z,2.73
2023-01-17T02:11:37.373Z,2.73
2023-01-17T02:13:39.867Z,2.65
2023-01-17T02:16:02.916Z,2.78
2023-01-17T02:18:22.698Z,2.78
2023-01-17T02:20:42.905Z,2.75
2023-01-17T02:23:05.663Z,2.77
2023-01-17T02:25:07.471Z,2.83
2023-01-17T02:27:16.248Z,2.90
2023-01-17T02:29:54.772Z,2.85
2023-01-17T02:32:14.816Z,2.81
2023-01-17T02:34:32.477Z,2.64
2023-01-17T02:36:42.367Z,2.69
2023-01-17T02:38:58.193Z,2.70
2023-01-17T02:41:27.821Z,2.81
2023-01-17T02:43:29.831Z,2.71
2023-01-17T02:45:31.791Z,2.80
2023-01-17T02:47:33.868Z,2.77
2023-01-17T02:49:35.616Z,2.85
2023-01-17T02:51:46.691Z,2.66
2023-01-17T02:54:12.568Z,3.01
2023-01-17T02:56:32.792Z,2.94
2023-01-17T02:59:02.581Z,2.96
2023-01-17T03:01:07.135Z,2.88
2023-01-17T03:03:33.394Z,2.90
2023-01-17T03:05:46.430Z,2.79
2023-01-17T03:07:48.540Z,2.88
2023-01-17T03:09:55.971Z,2.90
2023-01-17T03:11:59.693Z,2.93
2023-01-17T03:14:01.607Z,2.97
2023-01-17T03:16:07.075Z,2.96
2023-01-17T03:18:13.727Z,3.00
2023-01-17T03:20:16.081Z,3.02
2023-01-17T03:22:17.794Z,3.16
2023-01-17T03:24:19.547Z,3.17
2023-01-17T03:26:21.431Z,2.59
2023-01-17T03:28:23.125Z,3.01
2023-01-17T03:30:27.469Z,3.02
2023-01-17T03:32:29.204Z,3.28
2023-01-17T03:34:30.919Z,3.18
2023-01-17T03:36:32.668Z,3.06
2023-01-17T03:38:34.419Z,3.20
2023-01-17T03:40:36.141Z,3.19
2023-01-17T03:42:37.892Z,3.29
2023-01-17T03:44:39.587Z,3.10
2023-01-17T03:46:41.400Z,3.14
2023-01-17T03:48:43.280Z,3.21
2023-01-17T03:50:45.044Z,3.33
2023-01-17T03:52:46.717Z,3.25
2023-01-17T03:54:49.247Z,3.10
2023-01-17T03:56:50.979Z,3.17
2023-01-17T03:58:52.667Z,3.23
2023-01-17T04:00:54.730Z,3.15
2023-01-17T04:02:56.502Z,3.25
2023-01-17T04:04:58.197Z,3.31
2023-01-17T04:07:00.136Z,3.18
2023-01-17T04:09:01.854Z,3.21
2023-01-17T04:11:03.570Z,3.31
2023-01-17T04:13:05.500Z,3.27
2023-01-17T04:15:07.765Z,3.38
2023-01-17T04:17:12.631Z,3.27
2023-01-17T04:19:14.735Z,3.30
2023-01-17T04:21:16.452Z,3.42
2023-01-17T04:23:18.535Z,3.33
2023-01-17T04:25:20.635Z,3.20
2023-01-17T04:27:22.344Z,3.31
2023-01-17T04:29:24.134Z,3.25
2023-01-17T04:31:26.387Z,3.26
2023-01-17T04:33:28.099Z,3.25
2023-01-17T04:35:30.883Z,3.20
2023-01-17T04:37:33.034Z,3.24
2023-01-17T04:39:34.731Z,3.11
2023-01-17T04:41:36.470Z,3.21
2023-01-17T04:43:38.405Z,3.27
2023-01-17T04:45:40.167Z,3.25
2023-01-17T04:47:41.931Z,3.07
2023-01-17T04:49:44.269Z,3.02
2023-01-17T04:51:46.013Z,3.18
2023-01-17T04:53:47.690Z,3.12
2023-01-17T04:55:49.663Z,3.15
2023-01-17T04:57:51.481Z,3.10
2023-01-17T04:59:53.199Z,2.96
2023-01-17T05:01:55.393Z,3.10
2023-01-17T05:03:57.134Z,3.08
2023-01-17T05:05:59.173Z,3.11
2023-01-17T05:08:01.283Z,3.11
2023-01-17T05:10:03.411Z,3.06
2023-01-17T05:12:05.300Z,3.10
2023-01-17T05:14:07.464Z,3.17
2023-01-17T05:16:09.264Z,3.13
2023-01-17T05:18:16.568Z,3.11
2023-01-17T05:20:19.686Z,3.11
2023-01-17T05:22:21.366Z,3.01
2023-01-17T05:24:23.049Z,3.10
2023-01-17T05:26:24.962Z,2.97
2023-01-17T05:28:26.787Z,3.15
2023-01-17T05:30:30.781Z,3.11
2023-01-17T05:32:32.591Z,3.31
2023-01-17T05:34:34.337Z,3.22
2023-01-17T05:36:36.043Z,3.26
2023-01-17T05:38:38.071Z,3.14
2023-01-17T05:40:39.807Z,3.31
2023-01-17T05:42:45.626Z,3.18
2023-01-17T05:44:47.516Z,3.22
2023-01-17T05:46:49.208Z,3.07
2023-01-17T05:48:50.877Z,3.11
2023-01-17T05:50:52.713Z,2.95
2023-01-17T05:53:00.003Z,3.00
2023-01-17T05:55:01.692Z,3.00
2023-01-17T05:57:03.858Z,2.83
2023-01-17T05:59:05.582Z,2.91
2023-01-17T06:01:07.337Z,2.90
2023-01-17T06:03:09.680Z,2.85
2023-01-17T06:05:11.755Z,2.92
2023-01-17T06:07:13.430Z,2.84
2023-01-17T06:09:15.461Z,2.87
2023-01-17T06:11:17.253Z,2.95
2023-01-17T06:13:18.962Z,2.81
2023-01-17T06:15:21.075Z,2.60
2023-01-17T06:17:22.985Z,2.60
2023-01-17T06:19:24.687Z,2.64
2023-01-17T06:21:26.551Z,2.61
2023-01-17T06:23:28.233Z,2.45
2023-01-17T06:25:31.051Z,2.44
2023-01-17T06:27:33.190Z,2.14
2023-01-17T06:29:34.877Z,2.35
2023-01-17T06:31:36.700Z,2.42
2023-01-17T06:33:38.537Z,2.43
2023-01-17T06:35:40.389Z,2.34
2023-01-17T06:37:42.105Z,2.33
2023-01-17T06:39:44.094Z,2.41
2023-01-17T06:41:45.827Z,2.40
2023-01-17T06:43:47.494Z,2.42
2023-01-17T06:45:51.236Z,2.32
2023-01-17T06:47:53.103Z,2.19
2023-01-17T06:49:54.787Z,2.32
2023-01-17T06:51:56.814Z,2.50
2023-01-17T06:53:58.644Z,2.28
2023-01-17T06:56:00.323Z,2.39
2023-01-17T06:58:02.809Z,2.42
2023-01-17T07:00:05.330Z,2.35
2023-01-17T07:02:10.117Z,2.36
2023-01-17T07:04:11.966Z,2.34
2023-01-17T07:06:13.755Z,1.89
2023-01-17T07:08:16.183Z,2.55
2023-01-17T07:10:18.413Z,2.45
2023-01-17T07:12:20.110Z,2.54
2023-01-17T07:14:21.808Z,2.66
2023-01-17T07:16:23.844Z,2.55
2023-01-17T07:18:25.569Z,2.71
2023-01-17T07:20:27.364Z,2.70
2023-01-17T07:22:29.700Z,2.82
2023-01-17T07:24:31.487Z,2.83
2023-01-17T07:26:33.434Z,2.72
2023-01-17T07:28:35.361Z,3.19
2023-01-17T07:30:37.055Z,3.11
2023-01-17T07:32:38.936Z,3.07
2023-01-17T07:34:40.915Z,2.92
2023-01-17T07:36:42.610Z,2.97
2023-01-17T07:38:46.607Z,2.96
2023-01-17T07:40:48.722Z,2.90
2023-01-17T07:42:50.475Z,2.86
2023-01-17T07:44:52.230Z,3.05
2023-01-17T07:46:55.055Z,2.95
2023-01-17T07:48:56.774Z,3.17
2023-01-17T07:50:58.720Z,3.04
2023-01-17T07:53:00.499Z,3.07
2023-01-17T07:55:02.206Z,3.16
2023-01-17T07:57:04.077Z,3.21
2023-01-17T07:59:06.506Z,3.13
2023-01-17T08:01:10.622Z,3.09
2023-01-17T08:03:15.033Z,3.01
2023-01-17T08:05:17.331Z,3.16
2023-01-17T08:07:19.053Z,3.14
2023-01-17T08:09:20.764Z,3.19
2023-01-17T08:11:22.693Z,3.29
2023-01-17T08:13:24.823Z,3.07
2023-01-17T08:15:26.582Z,3.22
2023-01-17T08:17:29.832Z,3.23
2023-01-17T08:19:31.579Z,3.00
2023-01-17T08:21:33.253Z,3.13
2023-01-17T08:23:35.314Z,3.13
2023-01-17T08:25:37.710Z,3.17
2023-01-17T08:27:40.095Z,3.28
2023-01-17T08:29:42.256Z,2.98
2023-01-17T08:31:43.989Z,3.06
2023-01-17T08:33:45.790Z,2.82
2023-01-17T08:35:54.838Z,2.89
2023-01-17T08:37:56.837Z,3.13
2023-01-17T08:39:58.630Z,3.10
2023-01-17T08:42:00.515Z,2.98
2023-01-17T08:44:03.054Z,3.03
2023-01-17T08:46:04.833Z,3.26
2023-01-17T08:48:06.958Z,3.04
2023-01-17T08:50:09.052Z,3.08
2023-01-17T08:52:10.768Z,3.11
2023-01-17T08:54:12.806Z,3.31
2023-01-17T08:56:14.519Z,2.95
2023-01-17T08:58:16.194Z,3.41
2023-01-17T09:00:18.778Z,3.48
2023-01-17T09:02:20.553Z,3.60
2023-01-17T09:04:22.295Z,3.66
2023-01-17T09:06:24.510Z,3.75
2023-01-17T09:08:26.223Z,3.81
2023-01-17T09:10:27.921Z,3.82
2023-01-17T09:12:32.681Z,3.68
2023-01-17T09:14:35.538Z,3.90
2023-01-17T09:16:37.314Z,4.06
2023-01-17T09:18:39.216Z,3.98
2023-01-17T09:20:40.892Z,3.68
2023-01-17T09:22:42.603Z,3.81
2023-01-17T09:24:44.754Z,3.85
2023-01-17T09:26:46.430Z,3.61
2023-01-17T09:28:48.632Z,3.63
2023-01-17T09:30:50.872Z,3.58
2023-01-17T09:32:54.194Z,3.62
2023-01-17T09:34:55.897Z,3.83
2023-01-17T09:36:58.013Z,3.67
2023-01-17T09:39:00.226Z,3.59
2023-01-17T09:41:03.292Z,3.86
2023-01-17T09:43:12.804Z,3.81
2023-01-17T09:45:19.597Z,3.80
2023-01-17T09:47:43.862Z,3.87
2023-01-17T09:49:47.573Z,3.71
2023-01-17T09:51:49.283Z,3.79
2023-01-17T09:53:53.201Z,4.01
2023-01-17T09:56:03.908Z,3.94
2023-01-17T09:58:34.486Z,3.88
2023-01-17T10:00:41.236Z,4.13
2023-01-17T10:03:06.051Z,4.10
2023-01-17T10:05:54.729Z,4.07
2023-01-17T10:08:11.517Z,4.12
2023-01-17T10:10:40.125Z,4.24
2023-01-17T10:12:56.710Z,4.36
2023-01-17T10:15:25.677Z,4.34
2023-01-17T10:17:43.017Z,4.65
2023-01-17T10:19:59.006Z,4.35
2023-01-17T10:22:13.016Z,4.56
2023-01-17T10:24:20.588Z,4.41
2023-01-17T10:26:26.024Z,4.48
2023-01-17T10:28:33.190Z,4.58
2023-01-17T10:30:44.088Z,4.55
2023-01-17T10:32:48.709Z,4.63
2023-01-17T10:35:01.463Z,4.72
2023-01-17T10:37:23.052Z,4.58
2023-01-17T10:39:28.606Z,4.54
2023-01-17T10:41:52.642Z,4.70
2023-01-17T10:44:12.387Z,4.62
2023-01-17T10:46:32.303Z,4.57
2023-01-17T10:48:44.724Z,4.72
2023-01-17T10:51:18.695Z,5.06
2023-01-17T10:53:56.164Z,5.13
2023-01-17T10:55:58.479Z,5.21
2023-01-17T10:58:00.192Z,5.18
2023-01-17T11:00:02.439Z,5.07
2023-01-17T11:02:15.193Z,5.02
2023-01-17T11:04:25.536Z,5.23
2023-01-17T11:06:27.876Z,5.17
2023-01-17T11:08:50.307Z,5.16
2023-01-17T11:10:53.544Z,4.92
2023-01-17T11:12:55.516Z,5.18
2023-01-17T11:15:03.603Z,5.14
2023-01-17T11:17:06.875Z,5.26
2023-01-17T11:19:27.691Z,5.20
2023-01-17T11:21:29.456Z,5.19
2023-01-17T11:23:33.628Z,5.15
2023-01-17T11:25:35.630Z,5.44
2023-01-17T11:27:39.315Z,5.52
2023-01-17T11:29:40.870Z,5.50
2023-01-17T11:31:42.780Z,5.47
2023-01-17T11:33:47.775Z,5.49
2023-01-17T11:35:49.559Z,5.53
2023-01-17T11:37:57.670Z,5.59
2023-01-17T11:40:18.957Z,5.87
2023-01-17T11:42:36.291Z,5.95
2023-01-17T11:44:38.290Z,5.70
2023-01-17T11:46:40.007Z,5.57
2023-01-17T11:48:41.777Z,5.78
2023-01-17T11:50:57.952Z,6.07
2023-01-17T11:53:28.018Z,6.34
2023-01-17T11:55:29.712Z,6.45
2023-01-17T11:57:34.393Z,6.34
2023-01-17T11:59:43.876Z,6.34
2023-01-17T12:02:03.155Z,6.53
2023-01-17T12:04:36.542Z,6.58
2023-01-17T12:06:58.096Z,6.39
2023-01-17T12:09:02.784Z,6.60
2023-01-17T12:11:38.429Z,6.51
2023-01-17T12:14:28.348Z,6.59
2023-01-17T12:16:42.777Z,6.52
2023-01-17T12:19:04.256Z,6.15
2023-01-17T12:21:17.689Z,6.38
2023-01-17T12:23:44.872Z,6.50
2023-01-17T12:25:52.425Z,6.63
2023-01-17T12:28:12.662Z,6.78
2023-01-17T12:30:35.833Z,6.88
2023-01-17T12:33:17.735Z,6.90
2023-01-17T12:35:26.195Z,6.70
2023-01-17T12:37:30.843Z,6.63
2023-01-17T12:39:46.788Z,6.60
2023-01-17T12:41:57.636Z,6.58
2023-01-17T12:44:01.054Z,6.56
2023-01-17T12:46:11.937Z,6.49
2023-01-17T12:48:17.731Z,6.57
2023-01-17T12:50:28.616Z,6.60
2023-01-17T12:52:49.050Z,6.58
2023-01-17T12:54:58.081Z,6.56
2023-01-17T12:57:09.965Z,6.55
2023-01-17T12:59:20.012Z,6.41
2023-01-17T13:01:36.122Z,6.58
2023-01-17T13:03:57.675Z,6.33
2023-01-17T13:06:02.815Z,6.34
2023-01-17T13:08:28.521Z,6.44
2023-01-17T13:10:40.596Z,6.38
2023-01-17T13:12:42.575Z,6.24
2023-01-17T13:14:47.670Z,6.29
2023-01-17T13:16:55.905Z,6.38
2023-01-17T13:19:04.128Z,6.17
2023-01-17T13:21:35.158Z,6.17
2023-01-17T13:23:54.477Z,6.06
2023-01-17T13:25:59.206Z,6.21
2023-01-17T13:28:10.778Z,6.22
2023-01-17T13:30:56.122Z,6.09
2023-01-17T13:33:26.707Z,5.95
2023-01-17T13:35:48.393Z,5.96
2023-01-17T13:38:23.969Z,5.84
2023-01-17T13:40:49.664Z,5.86
2023-01-17T13:43:00.826Z,5.95
2023-01-17T13:45:30.383Z,5.93
2023-01-17T13:47:32.263Z,5.70
2023-01-17T13:49:45.650Z,5.73
2023-01-17T13:52:27.229Z,5.73
2023-01-17T13:54:33.067Z,5.65
2023-01-17T13:56:36.239Z,5.38
2023-01-17T13:59:00.291Z,5.55
2023-01-17T14:01:02.128Z,5.43
2023-01-17T14:03:04.471Z,5.53
2023-01-17T14:05:17.784Z,5.67
2023-01-17T14:07:25.766Z,5.60
2023-01-17T14:09:30.434Z,5.55
2023-01-17T14:11:34.103Z,5.46
2023-01-17T14:13:35.832Z,5.38
2023-01-17T14:15:49.935Z,5.23
2023-01-17T14:18:04.804Z,5.35
2023-01-17T14:20:09.645Z,5.22
2023-01-17T14:22:20.037Z,5.23
2023-01-17T14:24:22.040Z,5.22
2023-01-17T14:26:29.888Z,5.24
2023-01-17T14:28:32.214Z,5.36
2023-01-17T14:30:35.723Z,5.29
2023-01-17T14:32:38.955Z,5.12
2023-01-17T14:34:40.808Z,5.08
2023-01-17T14:36:42.870Z,5.11
2023-01-17T14:38:45.325Z,5.01
2023-01-17T14:41:00.968Z,5.15
2023-01-17T14:43:08.080Z,5.05
2023-01-17T14:45:15.030Z,5.08
2023-01-17T14:47:17.187Z,4.98
2023-01-17T14:49:23.670Z,4.86
2023-01-17T14:51:25.585Z,4.76
2023-01-17T14:53:29.117Z,4.79
2023-01-17T14:55:30.996Z,4.74
2023-01-17T14:57:32.732Z,4.62
2023-01-17T14:59:34.401Z,4.69
2023-01-17T15:01:36.539Z,4.63
2023-01-17T15:03:54.110Z,4.38
2023-01-17T15:05:57.916Z,4.30
2023-01-17T15:07:59.740Z,4.39
2023-01-17T15:10:02.929Z,4.33
2023-01-17T15:12:08.664Z,4.27
2023-01-17T15:14:20.929Z,4.17
2023-01-17T15:16:27.147Z,4.16
2023-01-17T15:18:28.962Z,4.05
2023-01-17T15:20:30.792Z,4.02
2023-01-17T15:22:33.397Z,3.79
2023-01-17T15:24:47.181Z,3.57
2023-01-17T15:26:49.451Z,3.49
2023-01-17T15:28:53.327Z,3.50
2023-01-17T15:31:11.719Z,3.47
2023-01-17T15:33:17.588Z,3.24
2023-01-17T15:35:20.083Z,3.17
2023-01-17T15:37:37.649Z,3.38
2023-01-17T15:39:40.948Z,3.39
2023-01-17T15:41:42.844Z,3.52
2023-01-17T15:43:45.335Z,3.75
2023-01-17T15:45:57.050Z,3.84
2023-01-17T15:48:40.406Z,3.92
2023-01-17T15:50:42.142Z,3.95
2023-01-17T15:52:55.455Z,3.94
2023-01-17T15:55:14.581Z,3.99
2023-01-17T15:57:28.367Z,4.13
2023-01-17T16:00:08.741Z,4.19
2023-01-17T16:02:31.852Z,4.11
2023-01-17T16:04:35.487Z,4.17
2023-01-17T16:06:38.095Z,4.15
2023-01-17T16:08:51.357Z,4.10
2023-01-17T16:10:55.545Z,4.04
2023-01-17T16:12:58.119Z,4.15
2023-01-17T16:15:11.647Z,4.17
2023-01-17T16:17:15.996Z,4.12
2023-01-17T16:19:17.910Z,4.13
2023-01-17T16:21:21.768Z,4.22
2023-01-17T16:23:23.599Z,4.19
2023-01-17T16:25:25.539Z,4.21
2023-01-17T16:27:27.236Z,4.21
2023-01-17T16:29:28.935Z,4.29
2023-01-17T16:31:30.714Z,4.01
2023-01-17T16:33:32.403Z,4.14
2023-01-17T16:35:34.740Z,4.25
2023-01-17T16:37:36.542Z,4.30
2023-01-17T16:39:38.764Z,4.28
2023-01-17T16:41:40.425Z,4.24
2023-01-17T16:43:42.237Z,4.20
2023-01-17T16:45:49.718Z,4.06
2023-01-17T16:47:53.289Z,4.18
2023-01-17T16:49:55.290Z,4.17
2023-01-17T16:51:57.016Z,4.10
2023-01-17T16:53:58.750Z,4.09
2023-01-17T16:56:08.246Z,4.03
2023-01-17T16:58:10.251Z,4.02
2023-01-17T17:00:12.522Z,3.94
2023-01-17T17:02:14.352Z,4.07
2023-01-17T17:04:16.419Z,4.27
2023-01-17T17:06:18.430Z,4.10
2023-01-17T17:08:20.313Z,3.99
2023-01-17T17:10:22.558Z,4.12
2023-01-17T17:12:24.308Z,4.26
2023-01-17T17:14:26.465Z,4.32
2023-01-17T17:16:29.682Z,4.32
2023-01-17T17:18:31.535Z,3.90
2023-01-17T17:20:33.524Z,3.97
2023-01-17T17:22:35.185Z,4.01
2023-01-17T17:24:38.810Z,3.97
2023-01-17T17:26:41.441Z,3.96
2023-01-17T17:28:43.118Z,3.92
2023-01-17T17:30:45.000Z,3.92
2023-01-17T17:32:47.070Z,3.78
2023-01-17T17:34:48.824Z,3.73
2023-01-17T17:36:51.987Z,3.85
2023-01-17T17:38:55.390Z,3.76
2023-01-17T17:41:07.802Z,3.73
2023-01-17T17:43:18.867Z,3.44
2023-01-17T17:45:20.571Z,3.36
2023-01-17T17:47:22.404Z,3.40
2023-01-17T17:49:27.807Z,3.22
2023-01-17T17:51:31.127Z,3.28
2023-01-17T17:53:33.621Z,3.24
2023-01-17T17:55:35.335Z,2.97
2023-01-17T17:57:37.708Z,2.94
2023-01-17T17:59:39.429Z,2.86
2023-01-17T18:01:41.709Z,2.95
2023-01-17T18:03:43.661Z,2.84
2023-01-17T18:05:45.395Z,2.95
2023-01-17T18:07:47.153Z,2.51
2023-01-17T18:09:48.951Z,2.10
2023-01-17T18:11:50.681Z,2.46
2023-01-17T18:13:53.359Z,2.56
2023-01-17T18:16:08.509Z,2.40
2023-01-17T18:18:10.251Z,2.28
2023-01-17T18:20:12.126Z,2.40
2023-01-17T18:22:13.916Z,2.49
2023-01-17T18:24:17.245Z,2.59
2023-01-17T18:26:21.972Z,2.61
2023-01-17T18:28:23.668Z,2.54
2023-01-17T18:30:25.362Z,2.41
2023-01-17T18:32:27.224Z,2.37
2023-01-17T18:34:28.959Z,2.39
2023-01-17T18:36:30.734Z,2.32
2023-01-17T18:38:40.074Z,2.33
2023-01-17T18:40:41.778Z,2.28
2023-01-17T18:42:43.446Z,2.22
2023-01-17T18:44:45.303Z,2.19
2023-01-17T18:46:47.362Z,1.99
2023-01-17T18:48:49.148Z,2.05
2023-01-17T18:51:03.721Z,2.01
2023-01-17T18:53:05.534Z,1.81
2023-01-17T18:55:07.581Z,1.82
2023-01-17T18:57:09.328Z,1.80
2023-01-17T18:59:15.495Z,1.75
2023-01-17T19:01:21.902Z,1.68
2023-01-17T19:03:27.212Z,1.47
2023-01-17T19:05:28.962Z,1.38
2023-01-17T19:07:30.663Z,1.54
2023-01-17T19:09:32.489Z,1.60
2023-01-17T19:11:35.613Z,1.66
2023-01-17T19:13:39.216Z,1.54
2023-01-17T19:15:40.874Z,1.64
2023-01-17T19:17:42.568Z,1.36
2023-01-17T19:19:44.560Z,1.62
2023-01-17T19:21:46.403Z,1.61
2023-01-17T19:23:48.595Z,1.48
2023-01-17T19:25:53.837Z,1.28
2023-01-17T19:27:55.722Z,1.16
2023-01-17T19:29:57.687Z,1.33
2023-01-17T19:31:59.410Z,1.30
2023-01-17T19:34:01.107Z,1.36
2023-01-17T19:36:05.348Z,1.37
2023-01-17T19:38:07.269Z,1.40
2023-01-17T19:40:09.657Z,1.43
2023-01-17T19:42:11.477Z,1.41
2023-01-17T19:44:14.399Z,1.42
2023-01-17T19:46:18.071Z,1.47
2023-01-17T19:48:20.621Z,1.23
2023-01-17T19:50:24.437Z,1.41
2023-01-17T19:52:26.181Z,1.25
2023-01-17T19:54:28.205Z,1.05
2023-01-17T19:56:30.201Z,1.03
2023-01-17T19:58:31.961Z,1.10
2023-01-17T20:00:33.825Z,1.01
2023-01-17T20:02:37.627Z,1.16
2023-01-17T20:04:39.403Z,1.18
2023-01-17T20:06:41.252Z,1.09
2023-01-17T20:08:43.130Z,1.10
2023-01-17T20:10:44.917Z,1.14
2023-01-17T20:12:46.725Z,1.15
2023-01-17T20:14:48.395Z,1.18
2023-01-17T20:16:50.331Z,1.14
2023-01-17T20:18:52.874Z,1.14
2023-01-17T20:20:57.223Z,1.14
2023-01-17T20:22:59.366Z,1.13
2023-01-17T20:25:01.174Z,1.08
2023-01-17T20:27:02.951Z,1.06
2023-01-17T20:29:08.398Z,0.99
2023-01-17T20:31:19.386Z,0.94
2023-01-17T20:33:22.045Z,0.93
2023-01-17T20:35:23.767Z,0.81
2023-01-17T20:37:25.598Z,0.88
2023-01-17T20:39:27.370Z,0.87
2023-01-17T20:41:37.625Z,0.84
2023-01-17T20:43:39.631Z,0.85
2023-01-17T20:45:41.393Z,0.81
2023-01-17T20:47:43.287Z,0.77
2023-01-17T20:49:45.087Z,0.71
2023-01-17T20:51:47.500Z,0.69
2023-01-17T20:53:54.748Z,0.69
2023-01-17T20:55:57.257Z,0.68
2023-01-17T20:57:59.245Z,0.65
2023-01-17T21:00:01.167Z,0.58
2023-01-17T21:02:03.246Z,0.54
2023-01-17T21:04:06.675Z,0.49
2023-01-17T21:06:10.678Z,0.45
2023-01-17T21:08:12.456Z,0.42
2023-01-17T21:10:14.246Z,0.31
2023-01-17T21:12:16.014Z,0.12
2023-01-17T21:14:17.975Z,0.19
2023-01-17T21:16:22.017Z,0.21
2023-01-17T21:18:26.431Z,0.15
2023-01-17T21:20:28.235Z,0.12
2023-01-17T21:22:29.958Z,0.15
2023-01-17T21:24:31.907Z,0.23
2023-01-17T21:26:33.830Z,-0.04
2023-01-17T21:28:37.567Z,0.16
2023-01-17T21:30:39.351Z,0.19
2023-01-17T21:32:41.247Z,0.16
2023-01-17T21:34:42.951Z,0.09
2023-01-17T21:36:44.821Z,0.09
2023-01-17T21:38:57.999Z,0.16
2023-01-17T21:40:59.712Z,-0.41
2023-01-17T21:43:01.820Z,-0.58
2023-01-17T21:45:03.907Z,-0.38
2023-01-17T21:47:05.628Z,-0.42
2023-01-17T21:49:08.798Z,-0.17
2023-01-17T21:51:12.854Z,-0.11
2023-01-17T21:53:14.591Z,-0.20
2023-01-17T21:55:16.432Z,-0.45
2023-01-17T21:57:21.027Z,-0.31
2023-01-17T21:59:22.763Z,-0.29
2023-01-17T22:01:32.133Z,-0.24
2023-01-17T22:03:34.085Z,-0.68
2023-01-17T22:05:35.952Z,-0.47
2023-01-17T22:07:38.011Z,-0.60
2023-01-17T22:09:39.851Z,-0.52
2023-01-17T22:11:41.570Z,-0.72
2023-01-17T22:13:44.679Z,-0.53
2023-01-17T22:15:46.820Z,-0.80
2023-01-17T22:17:48.574Z,-0.90
2023-01-17T22:19:50.372Z,-0.56
2023-01-17T22:21:54.737Z,-0.66
2023-01-17T22:23:58.780Z,-0.73
2023-01-17T22:26:05.448Z,-0.63
2023-01-17T22:28:07.405Z,-0.82
2023-01-17T22:30:09.764Z,-0.66
2023-01-17T22:32:11.461Z,-0.67
2023-01-17T22:34:13.292Z,-0.62
2023-01-17T22:36:15.299Z,-0.78
2023-01-17T22:38:17.036Z,-0.51
2023-01-17T22:40:18.977Z,-0.50
2023-01-17T22:42:20.680Z,-0.72
2023-01-17T22:44:22.485Z,-0.84
2023-01-17T22:46:27.752Z,-0.84
2023-01-17T22:48:31.355Z,-0.84
2023-01-17T22:50:32.903Z,-0.74
2023-01-17T22:52:34.992Z,-0.87
2023-01-17T22:54:36.665Z,-0.90
2023-01-17T22:56:38.368Z,-0.89
2023-01-17T22:58:41.793Z,-0.92
2023-01-17T23:00:43.462Z,-0.75
2023-01-17T23:02:45.220Z,-0.94
2023-01-17T23:04:47.060Z,-0.80
2023-01-17T23:06:48.732Z,-0.95
2023-01-17T23:08:52.664Z,-1.17
2023-01-17T23:10:54.618Z,-1.24
2023-01-17T23:12:56.594Z,-1.08
2023-01-17T23:14:58.462Z,-1.03
2023-01-17T23:17:02.940Z,-0.92
2023-01-17T23:19:04.615Z,-0.89
2023-01-17T23:21:08.092Z,-0.87
2023-01-17T23:23:09.827Z,-0.91
2023-01-17T23:25:13.407Z,-0.86
2023-01-17T23:27:14.930Z,-0.93
2023-01-17T23:29:17.127Z,-1.17
2023-01-17T23:31:18.885Z,-1.07
2023-01-17T23:33:20.599Z,-1.02
2023-01-17T23:35:25.236Z,-0.77
2023-01-17T23:37:28.368Z,-0.93
2023-01-17T23:39:30.051Z,-0.71
2023-01-17T23:41:32.032Z,-0.91
2023-01-17T23:43:34.772Z,-0.89
2023-01-17T23:45:37.973Z,-0.81
2023-01-17T23:47:40.173Z,-0.75
2023-01-17T23:49:41.886Z,-0.66
2023-01-17T23:51:43.732Z,-0.79
2023-01-17T23:53:45.696Z,-0.88
2023-01-17T23:55:48.146Z,-0.92
2023-01-17T23:57:50.793Z,-0.89
2023-01-17T23:59:52.906Z,-0.83
